Tropical Cyclones
[Index]
Main Index Home Page Stock Weather Photos Extreme Storms Discussion Storm News and Storm Chasing Reports Tropical Cyclones / Hurricanes / Typhoons Weather Data and Links Wild Fires / Bushfires Weather Observation Techniques Weather Picture Catalogue Tornado Pictures and Reports Stock Video Footage and DVDs for sale
Season 1983-1984 Tropical Cyclone BAKOLY Track Map
Season 1983-1984 Summaries: [BoM-AU] [JTWC-AU] [JTWC-SIO] [JTWC-SPAC] [JTWC-SH]
<<- Previous TC | JTWC 1983-1984 Season | Next TC ->>

click for intensity scale information  Lat/long Grid: Show Hide

 Date Labels: Show Hide

Joint Typhoon Warning Centre Cyclone Data

Name: BAKOLY

19 Dec 1983 00:00 UTC to 27 Dec 1983 12:00 UTC

    date/time    lat    long     hPa   cat  kts
1983-12-19 00    7.5    69.2                  25          
1983-12-19 06    8.6    70.1                  25          
1983-12-19 12    9.4    70.3                  30          
1983-12-19 18   10.0    69.8                  30          
1983-12-20 00   10.4    69.3                  35          
1983-12-20 06   10.5    68.8                  35          
1983-12-20 12   10.5    68.3            1     40          
1983-12-20 18   10.7    67.9            1     40          
1983-12-21 00   10.9    67.4            1     45          
1983-12-21 06   11.3    66.5            1     50          
1983-12-21 12   11.7    65.4            2     55          
1983-12-21 18   12.0    64.4            2     60          
1983-12-22 00   12.4    63.3            2     65          
1983-12-22 06   12.9    62.3            3     75          
1983-12-22 12   13.5    61.2            3     80          
1983-12-22 18   13.8    60.3            3     80          
1983-12-23 00   14.2    59.5            3     85          
1983-12-23 06   14.8    58.4            3     90          
1983-12-23 12   15.5    57.4            3     90          
1983-12-23 18   16.0    57.0            3     90          
1983-12-24 00   16.6    56.8            3     90          
1983-12-24 06   17.3    56.6            3     90          
1983-12-24 12   18.1    56.4            3     90          
1983-12-24 18   18.5    56.2            3     90          
1983-12-25 00   18.9    56.3            3     85          
1983-12-25 06   19.6    56.6            3     85          
1983-12-25 12   20.3    56.9            3     80          
1983-12-25 18   21.0    57.2            3     80          
1983-12-26 00   21.7    57.5            3     75          
1983-12-26 06   22.5    57.4            2     65          
1983-12-26 12   23.3    57.0            2     55          
1983-12-26 18   24.0    56.8            1     50          
1983-12-27 00   24.7    56.6            1     45          
1983-12-27 06   25.4    56.5            1     40          
1983-12-27 12   26.1    56.5                  30          
Winds are 1-min average.

Tropical cyclone tracks developed by Michael Bath using data from the Joint Typhoon Warning Centre Best Tracks and Google Maps.


[Australian Severe Weather index] [Copyright Notice] [Email Contacts] [Search This Site] [Privacy Policy]
Document: tropical_cyclone_bakoly.htm Updated: 18 September 2016